sensor_id;sensor_type;location;lat;lon;timestamp;pressure;altitude;pressure_sealevel;temperature
21336;BMP180;69435;52.670;13.544;2024-03-06T00:01:25;101342.00;;;9.50
21336;BMP180;69435;52.670;13.544;2024-03-06T00:04:11;101335.00;;;9.40
21336;BMP180;69435;52.670;13.544;2024-03-06T00:06:57;101347.00;;;9.40
21336;BMP180;69435;52.670;13.544;2024-03-06T00:09:43;101344.00;;;9.40
21336;BMP180;69435;52.670;13.544;2024-03-06T00:12:30;101350.00;;;9.40
21336;BMP180;69435;52.670;13.544;2024-03-06T00:15:16;101342.00;;;9.40
21336;BMP180;69435;52.670;13.544;2024-03-06T00:18:02;101342.00;;;9.40
21336;BMP180;69435;52.670;13.544;2024-03-06T00:20:49;101358.00;;;9.40
21336;BMP180;69435;52.670;13.544;2024-03-06T00:23:35;101368.00;;;9.40
21336;BMP180;69435;52.670;13.544;2024-03-06T00:26:23;101361.00;;;9.40
21336;BMP180;69435;52.670;13.544;2024-03-06T00:29:09;101369.00;;;9.40
21336;BMP180;69435;52.670;13.544;2024-03-06T00:31:55;101363.00;;;9.40
21336;BMP180;69435;52.670;13.544;2024-03-06T00:34:41;101368.00;;;9.40
21336;BMP180;69435;52.670;13.544;2024-03-06T00:37:27;101374.00;;;9.40
21336;BMP180;69435;52.670;13.544;2024-03-06T00:40:14;101377.00;;;9.40
21336;BMP180;69435;52.670;13.544;2024-03-06T00:43:00;101377.00;;;9.40
21336;BMP180;69435;52.670;13.544;2024-03-06T00:45:46;101362.00;;;9.30
21336;BMP180;69435;52.670;13.544;2024-03-06T00:48:32;101383.00;;;9.30
21336;BMP180;69435;52.670;13.544;2024-03-06T00:51:18;101371.00;;;9.20
21336;BMP180;69435;52.670;13.544;2024-03-06T00:54:04;101388.00;;;9.20
21336;BMP180;69435;52.670;13.544;2024-03-06T00:56:50;101396.00;;;9.10
21336;BMP180;69435;52.670;13.544;2024-03-06T00:59:36;101396.00;;;9.00
21336;BMP180;69435;52.670;13.544;2024-03-06T01:02:22;101390.00;;;8.90
21336;BMP180;69435;52.670;13.544;2024-03-06T01:05:08;101394.00;;;8.80
21336;BMP180;69435;52.670;13.544;2024-03-06T01:07:55;101397.00;;;8.70
21336;BMP180;69435;52.670;13.544;2024-03-06T01:10:42;101394.00;;;8.60
21336;BMP180;69435;52.670;13.544;2024-03-06T01:13:28;101349.00;;;8.50
21336;BMP180;69435;52.670;13.544;2024-03-06T01:16:15;101396.00;;;8.40
21336;BMP180;69435;52.670;13.544;2024-03-06T01:19:01;101378.00;;;8.30
21336;BMP180;69435;52.670;13.544;2024-03-06T01:21:47;101409.00;;;8.30
21336;BMP180;69435;52.670;13.544;2024-03-06T01:24:34;101401.00;;;8.20
21336;BMP180;69435;52.670;13.544;2024-03-06T01:27:20;101412.00;;;8.10
21336;BMP180;69435;52.670;13.544;2024-03-06T01:30:07;101416.00;;;8.10
21336;BMP180;69435;52.670;13.544;2024-03-06T01:32:53;101401.00;;;8.00
21336;BMP180;69435;52.670;13.544;2024-03-06T01:35:39;101416.00;;;7.90
21336;BMP180;69435;52.670;13.544;2024-03-06T01:38:25;101424.00;;;7.90
21336;BMP180;69435;52.670;13.544;2024-03-06T01:41:11;101383.00;;;7.80
21336;BMP180;69435;52.670;13.544;2024-03-06T01:43:57;101419.00;;;7.70
21336;BMP180;69435;52.670;13.544;2024-03-06T01:46:46;101403.00;;;7.70
21336;BMP180;69435;52.670;13.544;2024-03-06T01:49:32;101430.00;;;7.50
21336;BMP180;69435;52.670;13.544;2024-03-06T01:52:20;101400.00;;;7.50
21336;BMP180;69435;52.670;13.544;2024-03-06T01:55:09;101426.00;;;7.40
21336;BMP180;69435;52.670;13.544;2024-03-06T01:57:56;101432.00;;;7.30
21336;BMP180;69435;52.670;13.544;2024-03-06T02:00:43;101412.00;;;7.20
21336;BMP180;69435;52.670;13.544;2024-03-06T02:03:32;101391.00;;;7.20
21336;BMP180;69435;52.670;13.544;2024-03-06T02:06:18;101405.00;;;7.10
21336;BMP180;69435;52.670;13.544;2024-03-06T02:09:05;101417.00;;;7.00
21336;BMP180;69435;52.670;13.544;2024-03-06T02:11:52;101431.00;;;7.00
21336;BMP180;69435;52.670;13.544;2024-03-06T02:14:39;101414.00;;;6.90
21336;BMP180;69435;52.670;13.544;2024-03-06T02:17:26;101433.00;;;6.80
21336;BMP180;69435;52.670;13.544;2024-03-06T02:20:12;101429.00;;;6.70
21336;BMP180;69435;52.670;13.544;2024-03-06T02:23:00;101425.00;;;6.60
21336;BMP180;69435;52.670;13.544;2024-03-06T02:25:46;101405.00;;;6.60
21336;BMP180;69435;52.670;13.544;2024-03-06T02:28:33;101421.00;;;6.50
21336;BMP180;69435;52.670;13.544;2024-03-06T02:31:21;101436.00;;;6.50
21336;BMP180;69435;52.670;13.544;2024-03-06T02:34:09;101437.00;;;6.40
21336;BMP180;69435;52.670;13.544;2024-03-06T02:36:55;101418.00;;;6.40
21336;BMP180;69435;52.670;13.544;2024-03-06T02:39:42;101440.00;;;6.30
21336;BMP180;69435;52.670;13.544;2024-03-06T02:42:28;101441.00;;;6.30
21336;BMP180;69435;52.670;13.544;2024-03-06T02:45:15;101444.00;;;6.20
21336;BMP180;69435;52.670;13.544;2024-03-06T02:48:01;101447.00;;;6.20
21336;BMP180;69435;52.670;13.544;2024-03-06T02:50:47;101448.00;;;6.10
21336;BMP180;69435;52.670;13.544;2024-03-06T02:53:33;101448.00;;;6.10
21336;BMP180;69435;52.670;13.544;2024-03-06T02:56:19;101468.00;;;6.00
21336;BMP180;69435;52.670;13.544;2024-03-06T02:59:05;101456.00;;;6.00
21336;BMP180;69435;52.670;13.544;2024-03-06T03:01:51;101450.00;;;6.00
21336;BMP180;69435;52.670;13.544;2024-03-06T03:04:37;101450.00;;;5.90
21336;BMP180;69435;52.670;13.544;2024-03-06T03:07:23;101432.00;;;5.90
21336;BMP180;69435;52.670;13.544;2024-03-06T03:10:10;101442.00;;;5.80
21336;BMP180;69435;52.670;13.544;2024-03-06T03:12:56;101463.00;;;5.80
21336;BMP180;69435;52.670;13.544;2024-03-06T03:15:42;101472.00;;;5.80
21336;BMP180;69435;52.670;13.544;2024-03-06T03:18:28;101468.00;;;5.70
21336;BMP180;69435;52.670;13.544;2024-03-06T03:21:15;101462.00;;;5.70
21336;BMP180;69435;52.670;13.544;2024-03-06T03:24:01;101460.00;;;5.70
21336;BMP180;69435;52.670;13.544;2024-03-06T03:26:47;101453.00;;;5.60
21336;BMP180;69435;52.670;13.544;2024-03-06T03:29:33;101464.00;;;5.60
21336;BMP180;69435;52.670;13.544;2024-03-06T03:32:19;101467.00;;;5.60
21336;BMP180;69435;52.670;13.544;2024-03-06T03:35:06;101474.00;;;5.50
21336;BMP180;69435;52.670;13.544;2024-03-06T03:37:53;101448.00;;;5.50
21336;BMP180;69435;52.670;13.544;2024-03-06T03:40:39;101478.00;;;5.40
21336;BMP180;69435;52.670;13.544;2024-03-06T03:43:25;101477.00;;;5.40
21336;BMP180;69435;52.670;13.544;2024-03-06T03:46:12;101484.00;;;5.40
21336;BMP180;69435;52.670;13.544;2024-03-06T03:48:59;101493.00;;;5.40
21336;BMP180;69435;52.670;13.544;2024-03-06T03:51:45;101470.00;;;5.30
21336;BMP180;69435;52.670;13.544;2024-03-06T03:54:31;101495.00;;;5.30
21336;BMP180;69435;52.670;13.544;2024-03-06T03:57:17;101489.00;;;5.30
21336;BMP180;69435;52.670;13.544;2024-03-06T04:00:04;101485.00;;;5.30
21336;BMP180;69435;52.670;13.544;2024-03-06T04:02:56;101504.00;;;5.10
21336;BMP180;69435;52.670;13.544;2024-03-06T04:05:42;101495.00;;;5.20
21336;BMP180;69435;52.670;13.544;2024-03-06T04:08:28;101490.00;;;5.20
21336;BMP180;69435;52.670;13.544;2024-03-06T04:11:15;101495.00;;;5.10
21336;BMP180;69435;52.670;13.544;2024-03-06T04:14:01;101503.00;;;5.10
21336;BMP180;69435;52.670;13.544;2024-03-06T04:16:47;101502.00;;;5.10
21336;BMP180;69435;52.670;13.544;2024-03-06T04:19:33;101508.00;;;5.10
21336;BMP180;69435;52.670;13.544;2024-03-06T04:22:19;101516.00;;;5.10
21336;BMP180;69435;52.670;13.544;2024-03-06T04:25:06;101518.00;;;5.10
21336;BMP180;69435;52.670;13.544;2024-03-06T04:27:52;101504.00;;;5.00
21336;BMP180;69435;52.670;13.544;2024-03-06T04:30:38;101515.00;;;5.00
21336;BMP180;69435;52.670;13.544;2024-03-06T04:33:24;101515.00;;;5.00
21336;BMP180;69435;52.670;13.544;2024-03-06T04:36:10;101512.00;;;5.00
21336;BMP180;69435;52.670;13.544;2024-03-06T04:38:56;101522.00;;;4.90
21336;BMP180;69435;52.670;13.544;2024-03-06T04:41:42;101517.00;;;4.90
21336;BMP180;69435;52.670;13.544;2024-03-06T04:44:28;101513.00;;;4.90
21336;BMP180;69435;52.670;13.544;2024-03-06T04:47:14;101532.00;;;4.90
21336;BMP180;69435;52.670;13.544;2024-03-06T04:50:00;101530.00;;;4.90
21336;BMP180;69435;52.670;13.544;2024-03-06T04:52:46;101511.00;;;4.80
21336;BMP180;69435;52.670;13.544;2024-03-06T04:55:33;101534.00;;;4.80
21336;BMP180;69435;52.670;13.544;2024-03-06T04:58:19;101526.00;;;4.80
21336;BMP180;69435;52.670;13.544;2024-03-06T05:01:06;101540.00;;;4.80
21336;BMP180;69435;52.670;13.544;2024-03-06T05:03:52;101533.00;;;4.70
21336;BMP180;69435;52.670;13.544;2024-03-06T05:06:38;101518.00;;;4.70
21336;BMP180;69435;52.670;13.544;2024-03-06T05:09:24;101541.00;;;4.70
21336;BMP180;69435;52.670;13.544;2024-03-06T05:12:10;101556.00;;;4.70
21336;BMP180;69435;52.670;13.544;2024-03-06T05:14:56;101545.00;;;4.70
21336;BMP180;69435;52.670;13.544;2024-03-06T05:17:42;101560.00;;;4.70
21336;BMP180;69435;52.670;13.544;2024-03-06T05:20:29;101563.00;;;4.70
21336;BMP180;69435;52.670;13.544;2024-03-06T05:23:17;101547.00;;;4.70
21336;BMP180;69435;52.670;13.544;2024-03-06T05:26:03;101555.00;;;4.70
21336;BMP180;69435;52.670;13.544;2024-03-06T05:28:50;101567.00;;;4.70
21336;BMP180;69435;52.670;13.544;2024-03-06T05:31:36;101569.00;;;4.70
21336;BMP180;69435;52.670;13.544;2024-03-06T05:34:22;101560.00;;;4.70
21336;BMP180;69435;52.670;13.544;2024-03-06T05:37:08;101574.00;;;4.70
21336;BMP180;69435;52.670;13.544;2024-03-06T05:39:54;101579.00;;;4.80
21336;BMP180;69435;52.670;13.544;2024-03-06T05:42:40;101586.00;;;4.80
21336;BMP180;69435;52.670;13.544;2024-03-06T05:45:28;101593.00;;;4.80
21336;BMP180;69435;52.670;13.544;2024-03-06T05:48:14;101577.00;;;4.80
21336;BMP180;69435;52.670;13.544;2024-03-06T05:51:00;101585.00;;;4.80
21336;BMP180;69435;52.670;13.544;2024-03-06T05:53:46;101600.00;;;4.80
21336;BMP180;69435;52.670;13.544;2024-03-06T05:56:32;101594.00;;;4.80
21336;BMP180;69435;52.670;13.544;2024-03-06T05:59:19;101582.00;;;4.80
21336;BMP180;69435;52.670;13.544;2024-03-06T06:02:05;101580.00;;;4.90
21336;BMP180;69435;52.670;13.544;2024-03-06T06:04:51;101605.00;;;4.90
21336;BMP180;69435;52.670;13.544;2024-03-06T06:07:37;101601.00;;;4.90
21336;BMP180;69435;52.670;13.544;2024-03-06T06:10:23;101603.00;;;4.90
21336;BMP180;69435;52.670;13.544;2024-03-06T06:13:10;101591.00;;;4.90
21336;BMP180;69435;52.670;13.544;2024-03-06T06:15:58;101619.00;;;5.00
21336;BMP180;69435;52.670;13.544;2024-03-06T06:18:44;101619.00;;;5.00
21336;BMP180;69435;52.670;13.544;2024-03-06T06:21:31;101605.00;;;5.00
21336;BMP180;69435;52.670;13.544;2024-03-06T06:24:17;101623.00;;;5.10
21336;BMP180;69435;52.670;13.544;2024-03-06T06:27:03;101616.00;;;5.10
21336;BMP180;69435;52.670;13.544;2024-03-06T06:29:49;101629.00;;;5.20
21336;BMP180;69435;52.670;13.544;2024-03-06T06:32:35;101627.00;;;5.20
21336;BMP180;69435;52.670;13.544;2024-03-06T06:35:21;101632.00;;;5.30
21336;BMP180;69435;52.670;13.544;2024-03-06T06:38:08;101628.00;;;5.30
21336;BMP180;69435;52.670;13.544;2024-03-06T06:40:55;101625.00;;;5.40
21336;BMP180;69435;52.670;13.544;2024-03-06T06:43:41;101631.00;;;5.50
21336;BMP180;69435;52.670;13.544;2024-03-06T06:46:27;101628.00;;;5.50
21336;BMP180;69435;52.670;13.544;2024-03-06T06:49:13;101630.00;;;5.60
21336;BMP180;69435;52.670;13.544;2024-03-06T06:52:00;101628.00;;;5.70
21336;BMP180;69435;52.670;13.544;2024-03-06T06:54:46;101633.00;;;5.80
21336;BMP180;69435;52.670;13.544;2024-03-06T06:57:32;101636.00;;;5.90
21336;BMP180;69435;52.670;13.544;2024-03-06T07:00:19;101641.00;;;6.00
21336;BMP180;69435;52.670;13.544;2024-03-06T07:03:07;101645.00;;;6.10
21336;BMP180;69435;52.670;13.544;2024-03-06T07:05:53;101652.00;;;6.30
21336;BMP180;69435;52.670;13.544;2024-03-06T07:08:39;101655.00;;;6.80
21336;BMP180;69435;52.670;13.544;2024-03-06T07:11:26;101658.00;;;7.40
21336;BMP180;69435;52.670;13.544;2024-03-06T07:14:13;101641.00;;;8.20
21336;BMP180;69435;52.670;13.544;2024-03-06T07:16:59;101640.00;;;9.10
21336;BMP180;69435;52.670;13.544;2024-03-06T07:19:45;101656.00;;;10.10
21336;BMP180;69435;52.670;13.544;2024-03-06T07:22:31;101648.00;;;11.10
21336;BMP180;69435;52.670;13.544;2024-03-06T07:25:17;101654.00;;;12.20
21336;BMP180;69435;52.670;13.544;2024-03-06T07:28:03;101656.00;;;13.20
21336;BMP180;69435;52.670;13.544;2024-03-06T07:30:50;101666.00;;;14.30
21336;BMP180;69435;52.670;13.544;2024-03-06T07:33:36;101658.00;;;15.20
21336;BMP180;69435;52.670;13.544;2024-03-06T07:36:23;101655.00;;;16.20
21336;BMP180;69435;52.670;13.544;2024-03-06T07:39:09;101664.00;;;17.00
21336;BMP180;69435;52.670;13.544;2024-03-06T07:41:55;101659.00;;;17.80
21336;BMP180;69435;52.670;13.544;2024-03-06T07:44:41;101646.00;;;18.50
21336;BMP180;69435;52.670;13.544;2024-03-06T07:47:27;101668.00;;;19.20
21336;BMP180;69435;52.670;13.544;2024-03-06T07:50:14;101670.00;;;19.80
21336;BMP180;69435;52.670;13.544;2024-03-06T07:53:04;101670.00;;;20.40
21336;BMP180;69435;52.670;13.544;2024-03-06T07:55:51;101674.00;;;20.80
21336;BMP180;69435;52.670;13.544;2024-03-06T07:58:37;101662.00;;;21.30
21336;BMP180;69435;52.670;13.544;2024-03-06T08:01:23;101671.00;;;21.80
21336;BMP180;69435;52.670;13.544;2024-03-06T08:04:09;101684.00;;;22.20
21336;BMP180;69435;52.670;13.544;2024-03-06T08:06:55;101687.00;;;22.40
21336;BMP180;69435;52.670;13.544;2024-03-06T08:09:41;101694.00;;;22.70
21336;BMP180;69435;52.670;13.544;2024-03-06T08:12:29;101689.00;;;22.70
21336;BMP180;69435;52.670;13.544;2024-03-06T08:15:15;101652.00;;;22.70
21336;BMP180;69435;52.670;13.544;2024-03-06T08:18:01;101702.00;;;22.80
21336;BMP180;69435;52.670;13.544;2024-03-06T08:20:47;101705.00;;;23.00
21336;BMP180;69435;52.670;13.544;2024-03-06T08:23:33;101689.00;;;23.10
21336;BMP180;69435;52.670;13.544;2024-03-06T08:26:19;101694.00;;;23.10
21336;BMP180;69435;52.670;13.544;2024-03-06T08:29:05;101715.00;;;22.90
21336;BMP180;69435;52.670;13.544;2024-03-06T08:31:52;101719.00;;;22.60
21336;BMP180;69435;52.670;13.544;2024-03-06T08:34:39;101714.00;;;22.40
21336;BMP180;69435;52.670;13.544;2024-03-06T08:37:25;101717.00;;;22.30
21336;BMP180;69435;52.670;13.544;2024-03-06T08:40:11;101725.00;;;22.20
21336;BMP180;69435;52.670;13.544;2024-03-06T08:43:00;101731.00;;;22.10
21336;BMP180;69435;52.670;13.544;2024-03-06T08:45:46;101731.00;;;21.70
21336;BMP180;69435;52.670;13.544;2024-03-06T08:48:32;101737.00;;;21.40
21336;BMP180;69435;52.670;13.544;2024-03-06T08:51:18;101735.00;;;20.80
21336;BMP180;69435;52.670;13.544;2024-03-06T08:54:04;101742.00;;;20.10
21336;BMP180;69435;52.670;13.544;2024-03-06T08:56:50;101746.00;;;19.40
21336;BMP180;69435;52.670;13.544;2024-03-06T08:59:39;101759.00;;;18.70
21336;BMP180;69435;52.670;13.544;2024-03-06T09:02:25;101749.00;;;18.00
21336;BMP180;69435;52.670;13.544;2024-03-06T09:05:11;101749.00;;;17.30
21336;BMP180;69435;52.670;13.544;2024-03-06T09:07:58;101748.00;;;16.70
21336;BMP180;69435;52.670;13.544;2024-03-06T09:10:44;101750.00;;;16.00
21336;BMP180;69435;52.670;13.544;2024-03-06T09:13:30;101757.00;;;15.60
21336;BMP180;69435;52.670;13.544;2024-03-06T09:16:16;101760.00;;;15.20
21336;BMP180;69435;52.670;13.544;2024-03-06T09:19:04;101766.00;;;14.90
21336;BMP180;69435;52.670;13.544;2024-03-06T09:21:50;101765.00;;;14.60
21336;BMP180;69435;52.670;13.544;2024-03-06T09:24:36;101770.00;;;14.40
21336;BMP180;69435;52.670;13.544;2024-03-06T09:27:24;101758.00;;;14.40
21336;BMP180;69435;52.670;13.544;2024-03-06T09:30:10;101773.00;;;14.50
21336;BMP180;69435;52.670;13.544;2024-03-06T09:32:58;101777.00;;;14.80
21336;BMP180;69435;52.670;13.544;2024-03-06T09:35:44;101775.00;;;15.10
21336;BMP180;69435;52.670;13.544;2024-03-06T09:38:31;101787.00;;;15.30
21336;BMP180;69435;52.670;13.544;2024-03-06T09:41:17;101779.00;;;15.60
21336;BMP180;69435;52.670;13.544;2024-03-06T09:44:03;101779.00;;;16.00
21336;BMP180;69435;52.670;13.544;2024-03-06T09:46:49;101780.00;;;16.20
21336;BMP180;69435;52.670;13.544;2024-03-06T09:49:36;101788.00;;;16.10
21336;BMP180;69435;52.670;13.544;2024-03-06T09:52:24;101770.00;;;15.80
21336;BMP180;69435;52.670;13.544;2024-03-06T09:55:10;101786.00;;;15.60
21336;BMP180;69435;52.670;13.544;2024-03-06T09:57:58;101791.00;;;15.30
21336;BMP180;69435;52.670;13.544;2024-03-06T10:00:46;101790.00;;;15.10
21336;BMP180;69435;52.670;13.544;2024-03-06T10:03:33;101786.00;;;14.90
21336;BMP180;69435;52.670;13.544;2024-03-06T10:06:20;101772.00;;;14.80
21336;BMP180;69435;52.670;13.544;2024-03-06T10:09:06;101798.00;;;14.70
21336;BMP180;69435;52.670;13.544;2024-03-06T10:11:55;101786.00;;;14.60
21336;BMP180;69435;52.670;13.544;2024-03-06T10:14:52;101785.00;;;14.60
21336;BMP180;69435;52.670;13.544;2024-03-06T10:17:38;101787.00;;;14.50
21336;BMP180;69435;52.670;13.544;2024-03-06T10:20:24;101803.00;;;14.70
21336;BMP180;69435;52.670;13.544;2024-03-06T10:23:10;101781.00;;;14.90
21336;BMP180;69435;52.670;13.544;2024-03-06T10:25:57;101776.00;;;15.10
21336;BMP180;69435;52.670;13.544;2024-03-06T10:28:45;101805.00;;;15.40
21336;BMP180;69435;52.670;13.544;2024-03-06T10:31:31;101807.00;;;15.60
21336;BMP180;69435;52.670;13.544;2024-03-06T10:34:17;101808.00;;;15.90
21336;BMP180;69435;52.670;13.544;2024-03-06T10:37:04;101801.00;;;16.10
21336;BMP180;69435;52.670;13.544;2024-03-06T10:39:52;101789.00;;;16.30
21336;BMP180;69435;52.670;13.544;2024-03-06T10:42:41;101792.00;;;16.60
21336;BMP180;69435;52.670;13.544;2024-03-06T10:45:54;101789.00;;;16.90
21336;BMP180;69435;52.670;13.544;2024-03-06T10:48:44;101765.00;;;17.00
21336;BMP180;69435;52.670;13.544;2024-03-06T10:51:31;101790.00;;;17.30
21336;BMP180;69435;52.670;13.544;2024-03-06T10:54:21;101786.00;;;17.70
21336;BMP180;69435;52.670;13.544;2024-03-06T10:57:10;101793.00;;;18.00
21336;BMP180;69435;52.670;13.544;2024-03-06T10:59:58;101785.00;;;18.10
21336;BMP180;69435;52.670;13.544;2024-03-06T11:02:51;101782.00;;;18.20
21336;BMP180;69435;52.670;13.544;2024-03-06T11:05:40;101789.00;;;18.20
21336;BMP180;69435;52.670;13.544;2024-03-06T11:08:26;101769.00;;;18.30
21336;BMP180;69435;52.670;13.544;2024-03-06T11:11:24;101782.00;;;18.30
21336;BMP180;69435;52.670;13.544;2024-03-06T11:14:10;101784.00;;;18.30
21336;BMP180;69435;52.670;13.544;2024-03-06T11:17:06;101781.00;;;18.10
21336;BMP180;69435;52.670;13.544;2024-03-06T11:28:36;101780.00;;;17.30
21336;BMP180;69435;52.670;13.544;2024-03-06T11:31:23;101783.00;;;17.00
21336;BMP180;69435;52.670;13.544;2024-03-06T11:34:11;101774.00;;;16.80
21336;BMP180;69435;52.670;13.544;2024-03-06T11:37:06;101769.00;;;16.70
21336;BMP180;69435;52.670;13.544;2024-03-06T11:40:00;101779.00;;;16.70
21336;BMP180;69435;52.670;13.544;2024-03-06T11:42:54;101776.00;;;16.70
21336;BMP180;69435;52.670;13.544;2024-03-06T11:45:49;101771.00;;;16.80
21336;BMP180;69435;52.670;13.544;2024-03-06T11:48:36;101772.00;;;16.90
21336;BMP180;69435;52.670;13.544;2024-03-06T11:51:23;101752.00;;;17.00
21336;BMP180;69435;52.670;13.544;2024-03-06T11:54:09;101776.00;;;17.00
21336;BMP180;69435;52.670;13.544;2024-03-06T11:57:02;101779.00;;;16.90
21336;BMP180;69435;52.670;13.544;2024-03-06T11:59:48;101779.00;;;16.90
21336;BMP180;69435;52.670;13.544;2024-03-06T12:02:37;101780.00;;;16.80
21336;BMP180;69435;52.670;13.544;2024-03-06T12:05:23;101764.00;;;16.70
21336;BMP180;69435;52.670;13.544;2024-03-06T12:08:10;101783.00;;;16.60
21336;BMP180;69435;52.670;13.544;2024-03-06T12:10:56;101772.00;;;16.50
21336;BMP180;69435;52.670;13.544;2024-03-06T12:13:45;101772.00;;;16.40
21336;BMP180;69435;52.670;13.544;2024-03-06T12:16:31;101775.00;;;16.40
21336;BMP180;69435;52.670;13.544;2024-03-06T12:19:17;101770.00;;;16.30
21336;BMP180;69435;52.670;13.544;2024-03-06T12:22:05;101764.00;;;16.10
21336;BMP180;69435;52.670;13.544;2024-03-06T12:25:01;101781.00;;;15.90
21336;BMP180;69435;52.670;13.544;2024-03-06T12:27:47;101777.00;;;15.70
21336;BMP180;69435;52.670;13.544;2024-03-06T12:30:43;101775.00;;;15.70
21336;BMP180;69435;52.670;13.544;2024-03-06T12:33:31;101775.00;;;15.80
21336;BMP180;69435;52.670;13.544;2024-03-06T12:36:25;101774.00;;;15.90
21336;BMP180;69435;52.670;13.544;2024-03-06T12:39:15;101767.00;;;15.90
21336;BMP180;69435;52.670;13.544;2024-03-06T12:42:06;101767.00;;;15.80
21336;BMP180;69435;52.670;13.544;2024-03-06T12:44:52;101773.00;;;15.60
21336;BMP180;69435;52.670;13.544;2024-03-06T12:47:45;101769.00;;;15.60
21336;BMP180;69435;52.670;13.544;2024-03-06T12:50:33;101776.00;;;15.60
21336;BMP180;69435;52.670;13.544;2024-03-06T12:53:21;101769.00;;;15.60
21336;BMP180;69435;52.670;13.544;2024-03-06T12:56:08;101765.00;;;15.70
21336;BMP180;69435;52.670;13.544;2024-03-06T12:58:54;101752.00;;;15.70
21336;BMP180;69435;52.670;13.544;2024-03-06T13:01:40;101759.00;;;15.70
21336;BMP180;69435;52.670;13.544;2024-03-06T13:04:26;101761.00;;;15.60
21336;BMP180;69435;52.670;13.544;2024-03-06T13:07:12;101764.00;;;15.40
21336;BMP180;69435;52.670;13.544;2024-03-06T13:09:58;101766.00;;;15.30
21336;BMP180;69435;52.670;13.544;2024-03-06T13:12:44;101769.00;;;15.20
21336;BMP180;69435;52.670;13.544;2024-03-06T13:15:30;101766.00;;;15.20
21336;BMP180;69435;52.670;13.544;2024-03-06T13:18:16;101761.00;;;15.20
21336;BMP180;69435;52.670;13.544;2024-03-06T13:21:03;101762.00;;;15.30
21336;BMP180;69435;52.670;13.544;2024-03-06T13:23:49;101771.00;;;15.20
21336;BMP180;69435;52.670;13.544;2024-03-06T13:26:35;101752.00;;;15.10
21336;BMP180;69435;52.670;13.544;2024-03-06T13:29:23;101763.00;;;14.90
21336;BMP180;69435;52.670;13.544;2024-03-06T13:32:09;101749.00;;;14.90
21336;BMP180;69435;52.670;13.544;2024-03-06T13:34:55;101763.00;;;14.80
21336;BMP180;69435;52.670;13.544;2024-03-06T13:37:42;101759.00;;;14.70
21336;BMP180;69435;52.670;13.544;2024-03-06T13:40:28;101759.00;;;14.70
21336;BMP180;69435;52.670;13.544;2024-03-06T13:43:14;101763.00;;;14.60
21336;BMP180;69435;52.670;13.544;2024-03-06T13:46:01;101771.00;;;14.50
21336;BMP180;69435;52.670;13.544;2024-03-06T13:48:47;101776.00;;;14.30
21336;BMP180;69435;52.670;13.544;2024-03-06T13:51:33;101786.00;;;14.20
21336;BMP180;69435;52.670;13.544;2024-03-06T13:54:19;101788.00;;;14.10
21336;BMP180;69435;52.670;13.544;2024-03-06T13:57:09;101790.00;;;14.00
21336;BMP180;69435;52.670;13.544;2024-03-06T13:59:55;101782.00;;;13.80
21336;BMP180;69435;52.670;13.544;2024-03-06T14:02:41;101781.00;;;13.70
21336;BMP180;69435;52.670;13.544;2024-03-06T14:05:27;101785.00;;;13.70
21336;BMP180;69435;52.670;13.544;2024-03-06T14:08:14;101776.00;;;13.60
21336;BMP180;69435;52.670;13.544;2024-03-06T14:11:02;101780.00;;;13.60
21336;BMP180;69435;52.670;13.544;2024-03-06T14:13:52;101776.00;;;13.60
21336;BMP180;69435;52.670;13.544;2024-03-06T14:16:40;101761.00;;;13.70
21336;BMP180;69435;52.670;13.544;2024-03-06T14:19:26;101759.00;;;13.70
21336;BMP180;69435;52.670;13.544;2024-03-06T14:22:12;101785.00;;;13.80
21336;BMP180;69435;52.670;13.544;2024-03-06T14:24:58;101789.00;;;13.90
21336;BMP180;69435;52.670;13.544;2024-03-06T14:27:45;101765.00;;;13.90
21336;BMP180;69435;52.670;13.544;2024-03-06T14:30:31;101778.00;;;13.90
21336;BMP180;69435;52.670;13.544;2024-03-06T14:33:17;101795.00;;;13.80
21336;BMP180;69435;52.670;13.544;2024-03-06T14:36:03;101790.00;;;13.80
21336;BMP180;69435;52.670;13.544;2024-03-06T14:38:51;101791.00;;;13.80
21336;BMP180;69435;52.670;13.544;2024-03-06T14:41:40;101797.00;;;13.70
21336;BMP180;69435;52.670;13.544;2024-03-06T14:44:28;101796.00;;;13.70
21336;BMP180;69435;52.670;13.544;2024-03-06T14:47:14;101791.00;;;13.70
21336;BMP180;69435;52.670;13.544;2024-03-06T14:50:01;101791.00;;;13.70
21336;BMP180;69435;52.670;13.544;2024-03-06T14:52:47;101793.00;;;13.70
21336;BMP180;69435;52.670;13.544;2024-03-06T14:55:33;101798.00;;;13.70
21336;BMP180;69435;52.670;13.544;2024-03-06T14:58:19;101782.00;;;13.70
21336;BMP180;69435;52.670;13.544;2024-03-06T15:01:06;101764.00;;;13.60
21336;BMP180;69435;52.670;13.544;2024-03-06T15:03:53;101770.00;;;13.60
21336;BMP180;69435;52.670;13.544;2024-03-06T15:06:40;101783.00;;;13.50
21336;BMP180;69435;52.670;13.544;2024-03-06T15:09:26;101786.00;;;13.50
21336;BMP180;69435;52.670;13.544;2024-03-06T15:12:12;101784.00;;;13.50
21336;BMP180;69435;52.670;13.544;2024-03-06T15:14:58;101785.00;;;13.50
21336;BMP180;69435;52.670;13.544;2024-03-06T15:17:44;101792.00;;;13.50
21336;BMP180;69435;52.670;13.544;2024-03-06T15:20:32;101789.00;;;13.50
21336;BMP180;69435;52.670;13.544;2024-03-06T15:23:19;101785.00;;;13.50
21336;BMP180;69435;52.670;13.544;2024-03-06T15:26:05;101787.00;;;13.50
21336;BMP180;69435;52.670;13.544;2024-03-06T15:28:51;101776.00;;;13.50
21336;BMP180;69435;52.670;13.544;2024-03-06T15:31:39;101777.00;;;13.50
21336;BMP180;69435;52.670;13.544;2024-03-06T15:34:25;101794.00;;;13.50
21336;BMP180;69435;52.670;13.544;2024-03-06T15:37:11;101795.00;;;13.50
21336;BMP180;69435;52.670;13.544;2024-03-06T15:39:57;101775.00;;;13.40
21336;BMP180;69435;52.670;13.544;2024-03-06T15:42:43;101803.00;;;13.40
21336;BMP180;69435;52.670;13.544;2024-03-06T15:45:32;101788.00;;;13.30
21336;BMP180;69435;52.670;13.544;2024-03-06T15:48:18;101782.00;;;13.30